Terminal Aerodrome Forecast
Issued by NWS

Home | Current Version | Previous Version | Text Only | Print | Product List | Glossary On
Versions: 1 2 3 4 5 6 7 8 9 10 11 12 13 14
000
FTUS44 KLIX 012054 AAA
TAFMSY
TAF AMD
KMSY 012054Z 0121/0218 19010KT P6SM SCT027 BKN050
      TEMPO 0121/0123 VRB20G30KT 1SM TSRA BKN025CB
     FM012300 24009KT P6SM SCT050 BKN150=

USA.gov is the U.S. government's official web portal to all federal, state and local government web resources and services.